• Join FlightAware (Why Join?)
  • Login
  • US Flag 
Rudolph Flight #1: Arrived! 
02:04PM EST


 

Airport Tracker/Info


-or-


 

Live Flight TrackerFlight Track Log ✈ SWA3321 ✈ 09-Apr-2013 ✈ KLAS - KSMF

Flight Track Log - Related Links

Times and Time Zones

All times are in EDT time to prevent confusion due to time zone crossing. See the SWA3321 flight status page for this flight to view local times or setup timezone preferences in your user account.

Time Position Orientation Groundspeed Altitude Reporting Facility
EDT Latitude Longitude Course Direction KTS MPH feet Rate Location/Type
02:19PM 36.1183 -115.1542 345° North 160 184 3,700  Level Los Angeles Center
02:19PM 36.1194 -115.2011 272° West 210 242 5,300 2,160 Climbing Los Angeles Center
02:20PM 36.1142 -115.2247 255° West 216 249 5,900 2,280 Climbing Los Angeles Center
02:20PM 36.1058 -115.2828 260° West 238 274 7,700 2,520 Climbing Los Angeles Center
02:21PM 36.0853 -115.3008 215° Southwest 267 307 8,500 3,060 Climbing Los Angeles Center
02:21PM 36.0367 -115.3300 206° Southwest 281 323 10,900 3,000 Climbing Los Angeles Center
02:23PM 36.0144 -115.4214 253° West 280 322 14,000 2,040 Climbing Los Angeles Center
02:24PM 36.3473 -115.7540 299° West  Level Estimated
02:24PM 35.9900 -115.5350 255° West 325 374 15,200  Level Los Angeles Center
02:25PM 35.9600 -115.6728 255° West 376 433 18,600 3,000 Climbing Los Angeles Center
02:26PM 35.9283 -115.8172 255° West 408 470 21,400 2,400 Climbing Los Angeles Center
02:27PM 35.9103 -115.9550 261° West 409 471 23,600 2,040 Climbing Los Angeles Center
02:28PM 35.9731 -116.0583 307° West 404 465 25,700 2,700 Climbing Los Angeles Center
02:29PM 36.0619 -116.1608 317° Northwest 396 456 29,200 2,040 Climbing Los Angeles Center
02:30PM 36.1283 -116.2389 316° Northwest 378 435 30,000 360 Climbing Los Angeles Center
02:31PM 36.2181 -116.3411 317° Northwest 369 425 30,000  Level Los Angeles Center
02:32PM 36.2925 -116.4272 317° Northwest 368 423 30,000  Level Los Angeles Center
02:33PM 36.3681 -116.5150 317° Northwest 373 429 30,000  Level Los Angeles Center
02:34PM 36.4419 -116.6028 316° Northwest 370 426 30,000  Level Los Angeles Center
02:35PM 36.5156 -116.6878 317° Northwest 363 418 30,000  Level Los Angeles Center
02:36PM 36.6031 -116.7806 320° Northwest 360 414 30,000  Level Los Angeles Center
02:37PM 36.6867 -116.8400 330° Northwest 347 399 30,000  Level Los Angeles Center
02:38PM 36.7708 -116.9033 329° Northwest 341 392 30,000  Level Los Angeles Center
02:39PM 36.8483 -116.9617 329° Northwest 338 389 30,000  Level Los Angeles Center
02:40PM 36.8947 -116.9997 327° Northwest 335 386 30,000  Level Oakland Center
02:41PM 36.9750 -117.0619 328° Northwest 336 387 30,000  Level Oakland Center
02:42PM 37.0547 -117.1242 328° Northwest 336 387 30,000  Level Oakland Center
02:43PM 37.1350 -117.1853 329° Northwest 338 389 30,000  Level Oakland Center
02:44PM 37.2147 -117.2469 328° Northwest 335 386 30,000  Level Oakland Center
02:45PM 37.2958 -117.3086 329° Northwest 339 390 30,000  Level Oakland Center
02:46PM 37.3978 -117.3736 333° Northwest 341 392 30,000  Level Oakland Center
02:47PM 37.4836 -117.4292 333° Northwest 344 396 30,000  Level Oakland Center
02:48PM 37.5517 -117.5250 312° West 371 427 30,000  Level Oakland Center
02:49PM 37.6136 -117.6233 309° West 360 414 30,000  Level Oakland Center
02:50PM 37.6747 -117.7233 308° West 358 412 30,000  Level Oakland Center
02:51PM 37.7353 -117.8219 308° West 356 410 30,000  Level Oakland Center
02:52PM 37.7975 -117.9239 308° West 362 417 30,000  Level Oakland Center
02:53PM 37.8614 -118.0281 308° West 369 425 30,000  Level Oakland Center
02:54PM 37.9242 -118.1311 308° West 370 426 30,000  Level Oakland Center
02:55PM 37.9853 -118.2333 307° West 363 418 30,000  Level Oakland Center
02:56PM 38.0486 -118.3372 308° West 371 427 30,000  Level Oakland Center
02:57PM 38.1119 -118.4428 307° West 374 430 30,000  Level Oakland Center
02:58PM 38.1836 -118.5608 308° West 366 421 30,000  Level Oakland Center
02:59PM 38.2461 -118.6650 307° West 369 425 30,000  Level Oakland Center
03:00PM 38.3086 -118.7717 307° West 373 429 30,000  Level Oakland Center
03:01PM 38.3725 -118.8789 307° West 377 434 30,000  Level Oakland Center
03:02PM 38.4347 -118.9842 307° West 372 428 30,000  Level Oakland Center
03:03PM 38.4972 -119.0894 307° West 371 427 30,000  Level Oakland Center
03:04PM 38.5597 -119.1953 307° West 373 429 30,000  Level Oakland Center
03:05PM 38.6197 -119.2989 307° West 365 420 30,000 -240 Level Oakland Center
03:06PM 38.6586 -119.4297 291° West 397 457 29,600 -900 Descending Oakland Center
03:07PM 38.6933 -119.5844 286° West 376 433 28,200 -1,200 Descending Oakland Center
03:08PM 38.7203 -119.7072 286° West 361 415 27,200 -1,020 Descending Oakland Center
03:09PM 38.7467 -119.8322 285° West 359 413 26,200 -1,020 Descending Oakland Center
03:10PM 38.7756 -119.9539 287° West 358 412 25,200 -1,020 Descending Oakland Center
03:11PM 38.8003 -120.0731 285° West 352 405 24,200 -960 Descending Oakland Center
03:12PM 38.8236 -120.1864 285° West 338 389 23,300 -1,080 Descending Oakland Center
03:13PM 38.8469 -120.3003 285° West 333 383 22,100 -1,560 Descending Oakland Center
03:14PM 38.8708 -120.4114 285° West 326 375 20,200 -1,620 Descending Oakland Center
03:15PM 38.8944 -120.5203 286° West 320 368 18,900 -1,140 Descending Oakland Center
03:16PM 38.9169 -120.6336 284° West 327 376 17,900 -1,560 Descending Oakland Center
03:17PM 38.9456 -120.7694 285° West 330 380 15,800 -1,980 Descending Oakland Center
03:18PM 38.9694 -120.8869 285° West 337 388 13,900 -2,220 Descending Oakland Center
03:19PM 38.9883 -121.0036 282° West 344 396 11,400 -1,860 Descending Oakland Center
03:20PM 38.9603 -121.1264 254° West 361 415 10,200 -1,200 Descending Oakland Center
03:21PM 38.9500 -121.1667 252° West 341 392 9,900 -1,440 Descending Northern Cal TRACON
03:22PM 38.9167 -121.2667 247° West 321 369 8,400 -1,500 Descending Northern Cal TRACON
03:23PM 38.9000 -121.3833 260° West 321 369 7,000 -1,200 Descending Northern Cal TRACON
03:24PM 38.8333 -121.4667 224° Southwest 296 341 6,100 -540 Descending Northern Cal TRACON
03:25PM 38.7833 -121.5500 232° Southwest 295 339 6,000 -300 Descending Northern Cal TRACON
03:26PM 38.7333 -121.6167 226° Southwest 283 326 5,600 -900 Descending Northern Cal TRACON
03:27PM 38.6833 -121.6833 226° Southwest 261 300 4,200 -1,320 Descending Northern Cal TRACON
03:28PM 38.6283 -121.6944 189° South 250 288 3,100 -1,200 Descending Oakland Center
03:29PM 38.5956 -121.6417 128° Southeast 221 254 2,000 -960 Descending Oakland Center
03:30PM 38.6217 -121.6028 49° Northeast 154 177 1,200 -720 Descending Oakland Center
03:31PM 38.6569 -121.6000 North 129 148 600 -540 Descending Oakland Center
03:32PM 38.6939 -121.6028 357° North 125 144 100 -540 Descending Oakland Center